createdAt,value
2017-04-10T00:00:05.367Z,1013.77
2017-04-10T00:01:15.382Z,1013.81
2017-04-10T00:02:24.997Z,1013.78
2017-04-10T00:03:34.360Z,1013.82
2017-04-10T00:04:44.530Z,1013.8
2017-04-10T00:05:54.802Z,1013.8
2017-04-10T00:07:05.025Z,1013.81
2017-04-10T00:08:14.935Z,1013.78
2017-04-10T00:09:24.839Z,1013.76
2017-04-10T00:10:34.906Z,1013.77
2017-04-10T00:11:44.207Z,1013.79
2017-04-10T00:12:54.134Z,1013.79
2017-04-10T00:14:04.356Z,1013.79
2017-04-10T00:15:13.972Z,1013.77
2017-04-10T00:16:23.737Z,1013.75
2017-04-10T00:17:33.340Z,1013.71
2017-04-10T00:18:42.662Z,1013.71
2017-04-10T00:19:52.873Z,1013.71
2017-04-10T00:21:03.075Z,1013.69
2017-04-10T00:22:13.457Z,1013.66
2017-04-10T00:23:22.806Z,1013.7
2017-04-10T00:24:33.031Z,1013.65
2017-04-10T00:25:42.945Z,1013.66
2017-04-10T00:26:52.273Z,1013.65
2017-04-10T00:28:02.662Z,1013.58
2017-04-10T00:29:12.271Z,1013.61
2017-04-10T00:30:22.189Z,1013.62
2017-04-10T00:31:31.556Z,1013.57
2017-04-10T00:32:41.479Z,1013.58
2017-04-10T00:33:51.611Z,1013.59
2017-04-10T00:35:01.845Z,1013.57
2017-04-10T00:36:11.260Z,1013.52
2017-04-10T00:37:21.177Z,1013.54
2017-04-10T00:38:30.785Z,1013.55
2017-04-10T00:39:40.857Z,1013.51
2017-04-10T00:40:50.810Z,1013.5
2017-04-10T00:42:00.423Z,1013.49
2017-04-10T00:43:10.035Z,1013.47
2017-04-10T00:44:19.957Z,1013.47
2017-04-10T00:45:29.735Z,1013.53
2017-04-10T00:46:39.969Z,1013.48
2017-04-10T00:47:49.581Z,1013.46
2017-04-10T00:48:58.892Z,1013.46
2017-04-10T00:50:09.125Z,1013.44
2017-04-10T00:51:18.586Z,1013.43
2017-04-10T00:52:28.817Z,1013.4
2017-04-10T00:53:38.743Z,1013.39
2017-04-10T00:54:48.351Z,1013.42
2017-04-10T00:55:58.272Z,1013.43
2017-04-10T00:57:08.133Z,1013.38
2017-04-10T00:58:18.036Z,1013.36
2017-04-10T00:59:27.959Z,1013.37
2017-04-10T01:00:37.571Z,1013.4
2017-04-10T01:01:47.487Z,1013.41
2017-04-10T01:02:57.863Z,1013.41
2017-04-10T01:04:08.079Z,1013.46
2017-04-10T01:05:18.301Z,1013.42
2017-04-10T01:06:27.944Z,1013.4
2017-04-10T01:07:37.852Z,1013.37
2017-04-10T01:08:47.622Z,1013.37
2017-04-10T01:09:57.855Z,1013.35
2017-04-10T01:11:08.092Z,1013.38
2017-04-10T01:12:18.370Z,1013.37
2017-04-10T01:13:28.286Z,1013.35
2017-04-10T01:14:38.385Z,1013.36
2017-04-10T01:15:48.692Z,1013.31
2017-04-10T01:16:58.922Z,1013.34
2017-04-10T01:18:09.161Z,1013.32
2017-04-10T01:19:19.102Z,1013.31
2017-04-10T01:20:29.569Z,1013.27
2017-04-10T01:21:39.804Z,1013.26
2017-04-10T01:22:49.412Z,1013.24
2017-04-10T01:23:59.639Z,1013.29
2017-04-10T01:25:09.861Z,1013.24
2017-04-10T01:26:20.233Z,1013.21
2017-04-10T01:27:30.152Z,1013.25
2017-04-10T01:28:40.067Z,1013.23
2017-04-10T01:29:50.280Z,1013.26
2017-04-10T01:31:00.191Z,1013.24
2017-04-10T01:32:09.934Z,1013.22
2017-04-10T01:33:20.162Z,1013.19
2017-04-10T01:34:30.411Z,1013.17
2017-04-10T01:35:40.620Z,1013.18
2017-04-10T01:36:49.912Z,1013.16
2017-04-10T01:38:00.166Z,1013.17
2017-04-10T01:39:10.368Z,1013.16
2017-04-10T01:40:20.287Z,1013.19
2017-04-10T01:41:30.488Z,1013.15
2017-04-10T01:42:40.089Z,1013.16
2017-04-10T01:43:49.834Z,1013.11
2017-04-10T01:44:59.756Z,1013.1
2017-04-10T01:46:09.981Z,1013.07
2017-04-10T01:47:20.191Z,1013.06
2017-04-10T01:48:30.087Z,1013.04
2017-04-10T01:49:40.468Z,1013.04
2017-04-10T01:50:50.378Z,1013.06
2017-04-10T01:51:59.987Z,1013.03
2017-04-10T01:53:09.973Z,1013.04
2017-04-10T01:54:19.871Z,1012.99
2017-04-10T01:55:29.709Z,1013
2017-04-10T01:56:39.928Z,1012.97
2017-04-10T01:57:50.141Z,1012.96
2017-04-10T01:59:00.355Z,1012.98
2017-04-10T02:00:10.260Z,1012.94
2017-04-10T02:01:20.310Z,1012.9
2017-04-10T02:02:30.528Z,1012.87
2017-04-10T02:03:40.738Z,1012.88
2017-04-10T02:04:49.726Z,1012.86
2017-04-10T02:05:59.329Z,1012.82
2017-04-10T02:07:09.382Z,1012.79
2017-04-10T02:08:19.284Z,1012.75
2017-04-10T02:09:28.877Z,1012.75
2017-04-10T02:10:39.086Z,1012.72
2017-04-10T02:11:48.688Z,1012.75
2017-04-10T02:12:58.742Z,1012.72
2017-04-10T02:14:08.653Z,1012.71
2017-04-10T02:15:18.574Z,1012.65
2017-04-10T02:16:27.884Z,1012.64
2017-04-10T02:17:37.181Z,1012.65
2017-04-10T02:18:47.001Z,1012.59
2017-04-10T02:19:56.603Z,1012.62
2017-04-10T02:21:06.209Z,1012.6
2017-04-10T02:22:16.429Z,1012.58
2017-04-10T02:23:26.350Z,1012.6
2017-04-10T02:24:36.592Z,1012.57
2017-04-10T02:25:46.826Z,1012.57
2017-04-10T02:26:56.781Z,1012.59
2017-04-10T02:28:06.396Z,1012.58
2017-04-10T02:29:16.623Z,1012.57
2017-04-10T02:30:26.537Z,1012.56
2017-04-10T02:31:36.456Z,1012.55
2017-04-10T02:32:46.670Z,1012.54
2017-04-10T02:33:56.902Z,1012.55
2017-04-10T02:35:06.508Z,1012.54
2017-04-10T02:36:16.986Z,1012.52
2017-04-10T02:37:26.603Z,1012.5
2017-04-10T02:38:36.830Z,1012.48
2017-04-10T02:39:47.052Z,1012.49
2017-04-10T02:40:56.964Z,1012.46
2017-04-10T02:42:06.738Z,1012.46
2017-04-10T02:43:16.949Z,1012.52
2017-04-10T02:44:27.609Z,1012.47
2017-04-10T02:45:37.226Z,1012.47
2017-04-10T02:46:46.266Z,1012.54
2017-04-10T02:47:56.479Z,1012.5
2017-04-10T02:49:06.393Z,1012.52
2017-04-10T02:50:16.311Z,1012.51
2017-04-10T02:51:25.931Z,1012.47
2017-04-10T02:52:36.148Z,1012.44
2017-04-10T02:53:46.625Z,1012.47
2017-04-10T02:54:56.843Z,1012.42
2017-04-10T02:56:06.759Z,1012.4
2017-04-10T02:57:16.671Z,1012.38
2017-04-10T02:58:26.588Z,1012.38
2017-04-10T02:59:37.054Z,1012.39
2017-04-10T03:00:46.981Z,1012.38
2017-04-10T03:01:56.586Z,1012.36
2017-04-10T03:03:06.500Z,1012.35
2017-04-10T03:04:16.122Z,1012.32
2017-04-10T03:05:26.186Z,1012.34
2017-04-10T03:06:36.318Z,1012.31
2017-04-10T03:07:46.243Z,1012.29
2017-04-10T03:08:56.176Z,1012.27
2017-04-10T03:10:06.407Z,1012.34
2017-04-10T03:11:16.414Z,1012.32
2017-04-10T03:12:26.021Z,1012.33
2017-04-10T03:13:36.238Z,1012.3
2017-04-10T03:14:45.840Z,1012.34
2017-04-10T03:15:55.754Z,1012.31
2017-04-10T03:17:06.331Z,1012.32
2017-04-10T03:18:16.238Z,1012.32
2017-04-10T03:19:25.531Z,1012.32
2017-04-10T03:20:35.147Z,1012.3
2017-04-10T03:21:44.451Z,1012.38
2017-04-10T03:22:54.519Z,1012.35
2017-04-10T03:24:04.130Z,1012.29
2017-04-10T03:25:13.740Z,1012.3
2017-04-10T03:26:23.962Z,1012.28
2017-04-10T03:27:33.270Z,1012.29
2017-04-10T03:28:42.888Z,1012.34
2017-04-10T03:29:52.809Z,1012.35
2017-04-10T03:31:02.723Z,1012.29
2017-04-10T03:32:12.640Z,1012.32
2017-04-10T03:33:22.257Z,1012.29
2017-04-10T03:34:32.280Z,1012.31
2017-04-10T03:35:42.213Z,1012.28
2017-04-10T03:36:52.501Z,1012.32
2017-04-10T03:38:02.443Z,1012.37
2017-04-10T03:39:12.363Z,1012.39
2017-04-10T03:40:22.573Z,1012.42
2017-04-10T03:41:32.790Z,1012.44
2017-04-10T03:42:42.714Z,1012.44
2017-04-10T03:43:52.632Z,1012.46
2017-04-10T03:45:02.549Z,1012.47
2017-04-10T03:46:13.033Z,1012.45
2017-04-10T03:47:23.257Z,1012.48
2017-04-10T03:48:33.481Z,1012.46
2017-04-10T03:49:43.393Z,1012.51
2017-04-10T03:50:53.614Z,1012.49
2017-04-10T03:52:04.689Z,1012.49
2017-04-10T03:53:14.312Z,1012.47
2017-04-10T03:54:23.623Z,1012.45
2017-04-10T03:55:33.541Z,1012.43
2017-04-10T03:56:42.842Z,1012.46
2017-04-10T03:57:53.310Z,1012.45
2017-04-10T03:59:03.540Z,1012.43
2017-04-10T04:00:13.465Z,1012.47
2017-04-10T04:01:23.380Z,1012.49
2017-04-10T04:02:33.301Z,1012.47
2017-04-10T04:03:43.466Z,1012.47
2017-04-10T04:04:53.391Z,1012.49
2017-04-10T04:06:03.670Z,1012.46
2017-04-10T04:07:13.281Z,1012.47
2017-04-10T04:08:23.205Z,1012.52
2017-04-10T04:09:33.261Z,1012.48
2017-04-10T04:10:43.495Z,1012.47
2017-04-10T04:11:52.786Z,1012.47
2017-04-10T04:13:03.008Z,1012.4
2017-04-10T04:14:12.307Z,1012.42
2017-04-10T04:15:22.807Z,1012.41
2017-04-10T04:16:32.417Z,1012.39
2017-04-10T04:17:42.563Z,1012.4
2017-04-10T04:18:52.477Z,1012.39
2017-04-10T04:20:02.394Z,1012.44
2017-04-10T04:21:12.316Z,1012.41
2017-04-10T04:22:21.929Z,1012.46
2017-04-10T04:23:31.850Z,1012.48
2017-04-10T04:24:41.763Z,1012.48
2017-04-10T04:25:51.394Z,1012.38
2017-04-10T04:27:01.260Z,1012.42
2017-04-10T04:28:11.477Z,1012.47
2017-04-10T04:29:21.706Z,1012.41
2017-04-10T04:30:31.933Z,1012.43
2017-04-10T04:31:41.857Z,1012.44
2017-04-10T04:32:52.081Z,1012.46
2017-04-10T04:34:01.994Z,1012.52
2017-04-10T04:35:11.917Z,1012.53
2017-04-10T04:36:22.143Z,1012.52
2017-04-10T04:37:32.081Z,1012.57
2017-04-10T04:38:42.646Z,1012.56
2017-04-10T04:39:52.867Z,1012.56
2017-04-10T04:41:02.785Z,1012.6
2017-04-10T04:42:13.013Z,1012.59
2017-04-10T04:43:23.237Z,1012.6
2017-04-10T04:44:33.719Z,1012.65
2017-04-10T04:45:43.935Z,1012.67
2017-04-10T04:46:54.160Z,1012.64
2017-04-10T04:48:04.076Z,1012.69
2017-04-10T04:49:14.309Z,1012.74
2017-04-10T04:50:23.956Z,1012.77
2017-04-10T04:51:33.876Z,1012.8
2017-04-10T04:52:43.177Z,1012.77
2017-04-10T04:53:53.161Z,1012.72
2017-04-10T04:55:02.465Z,1012.76
2017-04-10T04:56:12.708Z,1012.78
2017-04-10T04:57:22.947Z,1012.77
2017-04-10T04:58:32.918Z,1012.79
2017-04-10T04:59:42.574Z,1012.84
2017-04-10T05:00:53.312Z,1012.87
2017-04-10T05:02:03.385Z,1012.85
2017-04-10T05:03:12.686Z,1012.86
2017-04-10T05:04:22.924Z,1012.87
2017-04-10T05:05:32.863Z,1012.91
2017-04-10T05:06:43.120Z,1012.93
2017-04-10T05:07:53.515Z,1012.97
2017-04-10T05:09:03.757Z,1013.1
2017-04-10T05:10:14.019Z,1013.02
2017-04-10T05:11:23.677Z,1013.08
2017-04-10T05:12:33.902Z,1013.06
2017-04-10T05:13:43.918Z,1013.13
2017-04-10T05:14:53.923Z,1013.18
2017-04-10T05:16:03.874Z,1013.18
2017-04-10T05:17:13.557Z,1013.19
2017-04-10T05:18:23.238Z,1013.17
2017-04-10T05:19:32.800Z,1013.17
2017-04-10T05:20:42.448Z,1013.22
2017-04-10T05:21:52.602Z,1013.22
2017-04-10T05:23:02.835Z,1013.24
2017-04-10T05:24:13.076Z,1013.28
2017-04-10T05:25:24.166Z,1013.33
2017-04-10T05:26:33.787Z,1013.34
2017-04-10T05:27:44.077Z,1013.41
2017-04-10T05:28:53.998Z,1013.39
2017-04-10T05:30:03.614Z,1013.41
2017-04-10T05:31:13.427Z,1013.39
2017-04-10T05:32:23.388Z,1013.43
2017-04-10T05:33:33.319Z,1013.42
2017-04-10T05:34:42.941Z,1013.44
2017-04-10T05:35:52.927Z,1013.42
2017-04-10T05:37:03.000Z,1013.41
2017-04-10T05:38:12.993Z,1013.4
2017-04-10T05:39:22.958Z,1013.41
2017-04-10T05:40:33.207Z,1013.4
2017-04-10T05:41:43.459Z,1013.48
2017-04-10T05:42:53.805Z,1013.51
2017-04-10T05:44:03.808Z,1013.52
2017-04-10T05:45:14.107Z,1013.52
2017-04-10T05:46:24.055Z,1013.53
2017-04-10T05:47:34.285Z,1013.56
2017-04-10T05:48:45.508Z,1013.59
2017-04-10T05:49:55.752Z,1013.54
2017-04-10T05:51:05.979Z,1013.55
2017-04-10T05:52:15.917Z,1013.56
2017-04-10T05:53:26.295Z,1013.59
2017-04-10T05:54:36.270Z,1013.63
2017-04-10T05:58:18.604Z,1013.63
2017-04-10T06:02:06.132Z,1013.61
2017-04-10T06:03:16.418Z,1013.66
2017-04-10T06:04:26.344Z,1013.61
2017-04-10T06:05:36.361Z,1013.67
2017-04-10T06:06:45.975Z,1013.68
2017-04-10T06:07:55.862Z,1013.7
2017-04-10T06:09:06.104Z,1013.69
2017-04-10T06:10:16.352Z,1013.69
2017-04-10T06:11:25.976Z,1013.7
2017-04-10T06:12:35.606Z,1013.68
2017-04-10T06:13:46.087Z,1013.68
2017-04-10T06:14:55.779Z,1013.7
2017-04-10T06:16:05.433Z,1013.68
2017-04-10T06:17:15.044Z,1013.76
2017-04-10T06:18:24.674Z,1013.81
2017-04-10T06:19:35.265Z,1013.83
2017-04-10T06:20:45.524Z,1013.88
2017-04-10T06:21:55.451Z,1013.89
2017-04-10T06:23:04.788Z,1013.83
2017-04-10T06:24:14.702Z,1013.88
2017-04-10T06:25:25.151Z,1013.92
2017-04-10T06:26:35.077Z,1013.94
2017-04-10T06:27:44.715Z,1013.93
2017-04-10T06:28:54.342Z,1013.98
2017-04-10T06:30:04.278Z,1014
2017-04-10T06:31:14.465Z,1013.97
2017-04-10T06:32:24.094Z,1013.95
2017-04-10T06:33:34.044Z,1014.01
2017-04-10T06:34:44.277Z,1014.03
2017-04-10T06:35:54.506Z,1014.08
2017-04-10T06:37:04.986Z,1014.18
2017-04-10T06:38:15.228Z,1014.16
2017-04-10T06:39:25.473Z,1014.15
2017-04-10T06:40:35.395Z,1014.16
2017-04-10T06:41:45.329Z,1014.16
2017-04-10T06:42:55.859Z,1014.14
2017-04-10T06:44:05.488Z,1014.18
2017-04-10T06:45:15.430Z,1014.21
2017-04-10T06:46:25.671Z,1014.26
2017-04-10T06:47:35.600Z,1014.26
2017-04-10T06:48:46.084Z,1014.3
2017-04-10T06:49:56.345Z,1014.34
2017-04-10T06:51:06.705Z,1014.27
2017-04-10T06:52:16.646Z,1014.32
2017-04-10T06:53:26.268Z,1014.26
2017-04-10T06:54:36.033Z,1014.38
2017-04-10T06:55:45.653Z,1014.4
2017-04-10T06:56:55.585Z,1014.4
2017-04-10T06:58:05.197Z,1014.4
2017-04-10T06:59:15.423Z,1014.37
2017-04-10T07:00:25.591Z,1014.42
2017-04-10T07:01:34.915Z,1014.5
2017-04-10T07:02:44.839Z,1014.55
2017-04-10T07:03:54.801Z,1014.54
2017-04-10T07:05:04.733Z,1014.52
2017-04-10T07:06:14.979Z,1014.53
2017-04-10T07:07:24.920Z,1014.59
2017-04-10T07:08:34.846Z,1014.62
2017-04-10T07:09:45.098Z,1014.7
2017-04-10T07:10:55.030Z,1014.75
2017-04-10T07:12:05.198Z,1014.81
2017-04-10T07:13:14.520Z,1014.73
2017-04-10T07:14:23.228Z,1014.72
2017-04-10T07:15:32.553Z,1014.66
2017-04-10T07:16:42.183Z,1014.76
2017-04-10T07:17:52.512Z,1014.83
2017-04-10T07:19:02.749Z,1014.87
2017-04-10T07:20:12.679Z,1014.9
2017-04-10T07:21:22.604Z,1014.83
2017-04-10T07:22:32.835Z,1014.85
2017-04-10T07:23:42.787Z,1014.91
2017-04-10T07:24:53.018Z,1014.98
2017-04-10T07:26:02.958Z,1014.98
2017-04-10T07:27:13.201Z,1015.03
2017-04-10T07:28:22.510Z,1015.03
2017-04-10T07:29:32.368Z,1015
2017-04-10T07:30:42.607Z,1015.03
2017-04-10T07:31:52.541Z,1015.11
2017-04-10T07:33:02.475Z,1015.06
2017-04-10T07:34:11.821Z,1015.2
2017-04-10T07:35:21.903Z,1015.23
2017-04-10T07:36:32.162Z,1015.25
2017-04-10T07:37:42.391Z,1015.22
2017-04-10T07:38:52.003Z,1015.21
2017-04-10T07:40:01.928Z,1015.27
2017-04-10T07:41:12.467Z,1015.37
2017-04-10T07:42:22.073Z,1015.37
2017-04-10T07:43:31.397Z,1015.44
2017-04-10T07:44:41.625Z,1015.37
2017-04-10T07:45:51.863Z,1015.39
2017-04-10T07:47:01.752Z,1015.37
2017-04-10T07:48:11.686Z,1015.32
2017-04-10T07:49:21.604Z,1015.34
2017-04-10T07:50:31.528Z,1015.34
2017-04-10T07:51:41.467Z,1015.45
2017-04-10T07:52:51.646Z,1015.49
2017-04-10T07:54:01.260Z,1015.49
2017-04-10T07:55:11.212Z,1015.49
2017-04-10T07:56:21.444Z,1015.47
2017-04-10T07:57:31.676Z,1015.52
2017-04-10T07:58:42.032Z,1015.64
2017-04-10T07:59:51.974Z,1015.61
2017-04-10T08:01:02.232Z,1015.63
2017-04-10T08:02:12.162Z,1015.57
2017-04-10T08:03:21.786Z,1015.56
2017-04-10T08:04:31.875Z,1015.6
2017-04-10T08:05:41.818Z,1015.6
2017-04-10T08:06:51.138Z,1015.68
2017-04-10T08:08:01.134Z,1015.66
2017-04-10T08:09:11.070Z,1015.63
2017-04-10T08:10:21.910Z,1015.61
2017-04-10T08:11:31.845Z,1015.63
2017-04-10T08:12:42.526Z,1015.64
2017-04-10T08:13:52.520Z,1015.61
2017-04-10T08:15:02.774Z,1015.68
2017-04-10T08:16:13.073Z,1015.68
2017-04-10T08:17:23.002Z,1015.7
2017-04-10T08:18:32.932Z,1015.67
2017-04-10T08:19:43.038Z,1015.69
2017-04-10T08:20:52.658Z,1015.67
2017-04-10T08:22:02.906Z,1015.68
2017-04-10T08:23:12.526Z,1015.67
2017-04-10T08:24:22.154Z,1015.62
2017-04-10T08:25:32.398Z,1015.64
2017-04-10T08:26:42.325Z,1015.66
2017-04-10T08:27:52.092Z,1015.7
2017-04-10T08:29:02.022Z,1015.78
2017-04-10T08:30:11.334Z,1015.77
2017-04-10T08:31:21.259Z,1015.76
2017-04-10T08:32:30.881Z,1015.78
2017-04-10T08:33:40.949Z,1015.77
2017-04-10T08:34:50.266Z,1015.77
2017-04-10T08:36:00.184Z,1015.82
2017-04-10T08:37:10.142Z,1015.79
2017-04-10T08:38:20.065Z,1015.87
2017-04-10T08:39:30.139Z,1015.87
2017-04-10T08:40:40.092Z,1015.92
2017-04-10T08:41:49.417Z,1015.94
2017-04-10T08:42:59.339Z,1015.95
2017-04-10T08:44:08.654Z,1015.93
2017-04-10T08:45:19.134Z,1015.93
2017-04-10T08:46:29.053Z,1015.94
2017-04-10T08:47:39.274Z,1015.99
2017-04-10T08:48:49.192Z,1015.93
2017-04-10T08:49:59.510Z,1015.95
2017-04-10T08:51:10.052Z,1015.96
2017-04-10T08:52:19.997Z,1015.89
2017-04-10T08:53:30.225Z,1016.01
2017-04-10T08:54:39.864Z,1016.09
2017-04-10T08:55:49.505Z,1016.14
2017-04-10T08:57:01.099Z,1016.11
2017-04-10T08:58:10.722Z,1016.05
2017-04-10T08:59:20.951Z,1016.04
2017-04-10T09:00:30.891Z,1016.09
2017-04-10T09:01:40.534Z,1016.16
2017-04-10T09:02:49.994Z,1016.11
2017-04-10T09:03:59.936Z,1016.19
2017-04-10T09:05:09.561Z,1016.2
2017-04-10T09:06:19.502Z,1016.23
2017-04-10T09:07:29.112Z,1016.23
2017-04-10T09:08:39.364Z,1016.18
2017-04-10T09:09:48.987Z,1016.19
2017-04-10T09:10:58.933Z,1016.24
2017-04-10T09:12:08.857Z,1016.3
2017-04-10T09:13:18.781Z,1016.32
2017-04-10T09:14:29.269Z,1016.33
2017-04-10T09:15:38.888Z,1016.27
2017-04-10T09:16:49.135Z,1016.28
2017-04-10T09:17:59.379Z,1016.29
2017-04-10T09:19:09.295Z,1016.3
2017-04-10T09:20:19.470Z,1016.37
2017-04-10T09:21:29.097Z,1016.4
2017-04-10T09:22:38.405Z,1016.34
2017-04-10T09:23:48.334Z,1016.4
2017-04-10T09:24:57.958Z,1016.39
2017-04-10T09:26:08.443Z,1016.35
2017-04-10T09:27:18.062Z,1016.35
2017-04-10T09:28:27.382Z,1016.3
2017-04-10T09:29:37.629Z,1016.36
2017-04-10T09:30:47.582Z,1016.33
2017-04-10T09:31:57.048Z,1016.33
2017-04-10T09:33:07.301Z,1016.37
2017-04-10T09:34:16.920Z,1016.38
2017-04-10T09:35:26.527Z,1016.39
2017-04-10T09:36:36.483Z,1016.36
2017-04-10T09:37:46.344Z,1016.36
2017-04-10T09:38:56.577Z,1016.36
2017-04-10T09:40:06.224Z,1016.33
2017-04-10T09:41:16.154Z,1016.34
2017-04-10T09:42:26.089Z,1016.34
2017-04-10T09:43:35.821Z,1016.35
2017-04-10T09:44:46.052Z,1016.32
2017-04-10T09:45:56.010Z,1016.36
2017-04-10T09:47:05.948Z,1016.36
2017-04-10T09:48:15.564Z,1016.35
2017-04-10T09:49:26.140Z,1016.31
2017-04-10T09:50:35.136Z,1016.32
2017-04-10T09:51:45.057Z,1016.34
2017-04-10T09:52:54.685Z,1016.36
2017-04-10T09:54:03.995Z,1016.35
2017-04-10T09:55:14.517Z,1016.3
2017-04-10T09:56:24.751Z,1016.32
2017-04-10T09:57:34.072Z,1016.36
2017-04-10T09:58:44.003Z,1016.32
2017-04-10T09:59:53.633Z,1016.32
2017-04-10T10:01:03.660Z,1016.33
2017-04-10T10:02:13.601Z,1016.32
2017-04-10T10:03:22.901Z,1016.33
2017-04-10T10:04:32.834Z,1016.32
2017-04-10T10:05:42.509Z,1016.34
2017-04-10T10:06:52.750Z,1016.34
2017-04-10T10:08:01.749Z,1016.35
2017-04-10T10:09:10.760Z,1016.3
2017-04-10T10:10:20.378Z,1016.34
2017-04-10T10:11:29.992Z,1016.36
2017-04-10T10:12:40.026Z,1016.31
2017-04-10T10:13:50.257Z,1016.38
2017-04-10T10:14:59.898Z,1016.34
2017-04-10T10:16:10.169Z,1016.38
2017-04-10T10:17:20.446Z,1016.35
2017-04-10T10:18:30.357Z,1016.33
2017-04-10T10:19:40.636Z,1016.36
2017-04-10T10:20:50.299Z,1016.35
2017-04-10T10:21:59.941Z,1016.39
2017-04-10T10:23:09.007Z,1016.35
2017-04-10T10:24:19.605Z,1016.39
2017-04-10T10:25:29.536Z,1016.4
2017-04-10T10:26:39.782Z,1016.36
2017-04-10T10:27:50.035Z,1016.35
2017-04-10T10:28:59.964Z,1016.37
2017-04-10T10:30:10.207Z,1016.29
2017-04-10T10:31:20.454Z,1016.36
2017-04-10T10:32:30.373Z,1016.33
2017-04-10T10:33:39.996Z,1016.38
2017-04-10T10:34:49.637Z,1016.37
2017-04-10T10:35:59.969Z,1016.4
2017-04-10T10:37:09.949Z,1016.31
2017-04-10T10:38:20.185Z,1016.41
2017-04-10T10:39:29.799Z,1016.37
2017-04-10T10:40:39.120Z,1016.36
2017-04-10T10:41:49.655Z,1016.33
2017-04-10T10:42:58.975Z,1016.37
2017-04-10T10:44:08.595Z,1016.4
2017-04-10T10:45:17.903Z,1016.39
2017-04-10T10:46:27.836Z,1016.35
2017-04-10T10:47:38.028Z,1016.36
2017-04-10T10:48:48.363Z,1016.38
2017-04-10T10:49:57.681Z,1016.37
2017-04-10T10:51:07.307Z,1016.4
2017-04-10T10:52:17.239Z,1016.46
2017-04-10T10:53:27.271Z,1016.42
2017-04-10T10:54:37.510Z,1016.45
2017-04-10T10:55:47.150Z,1016.5
2017-04-10T10:56:57.068Z,1016.51
2017-04-10T10:58:07.306Z,1016.47
2017-04-10T10:59:17.029Z,1016.48
2017-04-10T11:00:26.971Z,1016.51
2017-04-10T11:01:36.614Z,1016.52
2017-04-10T11:02:46.564Z,1016.58
2017-04-10T11:03:56.825Z,1016.5
2017-04-10T11:05:07.335Z,1016.53
2017-04-10T11:06:16.991Z,1016.52
2017-04-10T11:07:26.933Z,1016.55
2017-04-10T11:08:36.585Z,1016.52
2017-04-10T11:09:46.828Z,1016.55
2017-04-10T11:10:56.455Z,1016.51
2017-04-10T11:12:06.737Z,1016.59
2017-04-10T11:13:16.059Z,1016.58
2017-04-10T11:14:25.687Z,1016.58
2017-04-10T11:15:35.649Z,1016.49
2017-04-10T11:16:45.579Z,1016.54
2017-04-10T11:17:55.203Z,1016.52
2017-04-10T11:19:05.154Z,1016.55
2017-04-10T11:20:15.112Z,1016.54
2017-04-10T11:21:25.068Z,1016.52
2017-04-10T11:22:35.112Z,1016.53
2017-04-10T11:23:45.039Z,1016.59
2017-04-10T11:24:55.005Z,1016.58
2017-04-10T11:26:05.027Z,1016.6
2017-04-10T11:27:14.984Z,1016.56
2017-04-10T11:28:25.231Z,1016.55
2017-04-10T11:29:35.168Z,1016.56
2017-04-10T11:30:45.111Z,1016.59
2017-04-10T11:31:54.785Z,1016.59
2017-04-10T11:33:04.101Z,1016.57
2017-04-10T11:34:14.208Z,1016.52
2017-04-10T11:35:24.138Z,1016.62
2017-04-10T11:36:34.082Z,1016.66
2017-04-10T11:37:44.039Z,1016.58
2017-04-10T11:38:53.378Z,1016.58
2017-04-10T11:40:03.508Z,1016.58
2017-04-10T11:41:13.158Z,1016.59
2017-04-10T11:42:23.105Z,1016.62
2017-04-10T11:43:33.052Z,1016.61
2017-04-10T11:44:42.998Z,1016.68
2017-04-10T11:45:53.188Z,1016.68
2017-04-10T11:47:03.445Z,1016.72
2017-04-10T11:48:13.407Z,1016.68
2017-04-10T11:49:23.343Z,1016.61
2017-04-10T11:50:33.314Z,1016.65
2017-04-10T11:51:43.092Z,1016.69
2017-04-10T11:52:53.043Z,1016.73
2017-04-10T11:54:02.992Z,1016.68
2017-04-10T11:55:12.958Z,1016.71
2017-04-10T11:56:22.282Z,1016.72
2017-04-10T11:57:32.582Z,1016.67
2017-04-10T11:58:41.613Z,1016.7
2017-04-10T11:59:51.544Z,1016.72
2017-04-10T12:01:01.505Z,1016.72
2017-04-10T12:02:10.850Z,1016.74
2017-04-10T12:03:20.745Z,1016.74
2017-04-10T12:04:31.000Z,1016.81
2017-04-10T12:05:41.312Z,1016.81
2017-04-10T12:06:50.659Z,1016.8
2017-04-10T12:08:00.605Z,1016.81
2017-04-10T12:09:10.823Z,1016.82
2017-04-10T12:10:21.091Z,1016.9
2017-04-10T12:11:31.343Z,1016.9
2017-04-10T12:12:41.017Z,1016.92
2017-04-10T12:13:50.664Z,1016.95
2017-04-10T12:15:00.844Z,1016.89
2017-04-10T12:16:10.471Z,1016.95
2017-04-10T12:17:20.399Z,1016.93
2017-04-10T12:18:30.022Z,1016.95
2017-04-10T12:19:39.956Z,1016.98
2017-04-10T12:20:49.828Z,1017
2017-04-10T12:21:59.790Z,1017.02
2017-04-10T12:23:09.736Z,1016.99
2017-04-10T12:24:20.005Z,1016.97
2017-04-10T12:25:29.954Z,1017.01
2017-04-10T12:26:39.928Z,1016.99
2017-04-10T12:27:50.176Z,1017
2017-04-10T12:28:59.785Z,1017
2017-04-10T12:30:09.728Z,1016.97
2017-04-10T12:31:19.351Z,1017.01
2017-04-10T12:32:29.139Z,1017.03
2017-04-10T12:33:39.075Z,1017.04
2017-04-10T12:34:48.687Z,1017.01
2017-04-10T12:35:58.300Z,1017.02
2017-04-10T12:37:07.914Z,1017.06
2017-04-10T12:38:17.465Z,1017.01
2017-04-10T12:39:27.712Z,1017.02
2017-04-10T12:40:37.335Z,1017
2017-04-10T12:41:47.591Z,1017.01
2017-04-10T12:42:56.920Z,1017.05
2017-04-10T12:44:07.092Z,1017.06
2017-04-10T12:45:17.031Z,1017.04
2017-04-10T12:46:27.310Z,1017.06
2017-04-10T12:47:36.946Z,1017.06
2017-04-10T12:48:46.881Z,1017.04
2017-04-10T12:49:57.296Z,1017
2017-04-10T12:51:06.921Z,1016.98
2017-04-10T12:52:17.148Z,1017.03
2017-04-10T12:53:27.397Z,1016.96
2017-04-10T12:54:37.014Z,1016.92
2017-04-10T12:55:47.237Z,1016.94
2017-04-10T12:56:57.482Z,1016.92
2017-04-10T12:58:07.135Z,1016.95
2017-04-10T12:59:17.050Z,1016.91
2017-04-10T13:00:26.349Z,1016.97
2017-04-10T13:01:36.417Z,1016.95
2017-04-10T13:02:46.029Z,1016.97
2017-04-10T13:03:56.314Z,1016.96
2017-04-10T13:05:05.626Z,1016.95
2017-04-10T13:06:15.569Z,1016.96
2017-04-10T13:07:25.590Z,1016.95
2017-04-10T13:08:34.906Z,1016.95
2017-04-10T13:09:44.213Z,1016.89
2017-04-10T13:10:54.435Z,1016.91
2017-04-10T13:12:04.364Z,1016.96
2017-04-10T13:13:13.617Z,1016.95
2017-04-10T13:14:23.250Z,1016.98
2017-04-10T13:15:33.250Z,1016.96
2017-04-10T13:16:43.193Z,1016.95
2017-04-10T13:17:53.127Z,1016.91
2017-04-10T13:19:03.172Z,1016.92
2017-04-10T13:20:13.100Z,1016.9
2017-04-10T13:21:22.435Z,1016.95
2017-04-10T13:22:32.366Z,1016.93
2017-04-10T13:23:42.019Z,1016.93
2017-04-10T13:24:52.256Z,1016.91
2017-04-10T13:26:02.201Z,1016.9
2017-04-10T13:27:11.896Z,1016.87
2017-04-10T13:28:21.821Z,1016.86
2017-04-10T13:29:31.755Z,1016.83
2017-04-10T13:30:41.814Z,1016.81
2017-04-10T13:31:51.751Z,1016.83
2017-04-10T13:33:00.757Z,1016.82
2017-04-10T13:34:09.828Z,1016.76
2017-04-10T13:35:20.060Z,1016.77
2017-04-10T13:36:30.666Z,1016.74
2017-04-10T13:37:40.953Z,1016.76
2017-04-10T13:38:50.585Z,1016.8
2017-04-10T13:40:00.191Z,1016.79
2017-04-10T13:41:09.906Z,1016.76
2017-04-10T13:42:19.810Z,1016.8
2017-04-10T13:43:29.128Z,1016.78
2017-04-10T13:44:39.064Z,1016.78
2017-04-10T13:45:48.138Z,1016.78
2017-04-10T13:46:58.061Z,1016.8
2017-04-10T13:48:08.388Z,1016.8
2017-04-10T13:49:17.999Z,1016.75
2017-04-10T13:50:27.972Z,1016.8
2017-04-10T13:51:37.912Z,1016.77
2017-04-10T13:52:47.834Z,1016.78
2017-04-10T13:53:57.705Z,1016.79
2017-04-10T13:55:07.642Z,1016.78
2017-04-10T13:56:17.575Z,1016.8
2017-04-10T13:57:27.535Z,1016.82
2017-04-10T13:58:37.460Z,1016.79
2017-04-10T13:59:46.923Z,1016.8
2017-04-10T14:00:56.907Z,1016.79
2017-04-10T14:02:06.862Z,1016.79
2017-04-10T14:03:16.273Z,1016.72
2017-04-10T14:04:26.221Z,1016.76
2017-04-10T14:05:36.545Z,1016.71
2017-04-10T14:06:46.781Z,1016.72
2017-04-10T14:07:56.706Z,1016.71
2017-04-10T14:09:06.976Z,1016.7
2017-04-10T14:10:17.290Z,1016.73
2017-04-10T14:11:27.772Z,1016.74
2017-04-10T14:12:37.720Z,1016.75
2017-04-10T14:13:47.681Z,1016.71